Zavodoukovsk, Russia
Current Conditions -  °F | °C
As of 5:30 AM on Friday 19 Dec 2014 (Local Time) from USTR Reporting Station
Blowing Snow Blowing Snow  
Wind Chill: -2°   Ceiling: Unl
Heat Index: 12°   Visibility: 6mi
Dew Point: 10°   Wind: 11mph
Humidity: 92%   Direction: 190°S
Pressure: 30.12"   Gusts: 18mph
Location:  56.51°N, 66.54°E
Report Text: USTR 190030Z 19005G08MPS 9999 DRSN NSC M11/M12 Q1020 NOSIG RMKQFE755/1007 21450160 30450350
Loading
Personal Weather Stations






























Interactive Weather Map New forecast layout! Learn more

10-Day Weather Forecast

Advertisements
Track Severe Weather on mobile